sensor_id;sensor_type;location;lat;lon;timestamp;P1;durP1;ratioP1;P2;durP2;ratioP2
73428;SDS011;61643;49.564;17.412;2022-07-25T00:00:59;1.27;;;1.17;;
73428;SDS011;61643;49.564;17.412;2022-07-25T00:03:24;1.20;;;1.10;;
73428;SDS011;61643;49.564;17.412;2022-07-25T00:05:50;1.35;;;1.10;;
73428;SDS011;61643;49.564;17.412;2022-07-25T00:08:15;2.20;;;1.38;;
73428;SDS011;61643;49.564;17.412;2022-07-25T00:10:42;1.30;;;1.08;;
73428;SDS011;61643;49.564;17.412;2022-07-25T00:13:07;1.00;;;0.93;;
73428;SDS011;61643;49.564;17.412;2022-07-25T00:15:33;1.47;;;1.17;;
73428;SDS011;61643;49.564;17.412;2022-07-25T00:17:58;1.38;;;1.20;;
73428;SDS011;61643;49.564;17.412;2022-07-25T00:20:24;5.37;;;1.30;;
73428;SDS011;61643;49.564;17.412;2022-07-25T00:22:49;1.38;;;1.20;;
73428;SDS011;61643;49.564;17.412;2022-07-25T00:25:14;1.80;;;1.40;;
73428;SDS011;61643;49.564;17.412;2022-07-25T00:27:40;1.90;;;1.10;;
73428;SDS011;61643;49.564;17.412;2022-07-25T00:30:05;2.30;;;1.30;;
73428;SDS011;61643;49.564;17.412;2022-07-25T00:32:31;3.03;;;1.20;;
73428;SDS011;61643;49.564;17.412;2022-07-25T00:34:57;2.80;;;1.30;;
73428;SDS011;61643;49.564;17.412;2022-07-25T00:37:22;1.50;;;1.20;;
73428;SDS011;61643;49.564;17.412;2022-07-25T00:39:47;1.90;;;1.37;;
73428;SDS011;61643;49.564;17.412;2022-07-25T00:42:13;2.70;;;1.20;;
73428;SDS011;61643;49.564;17.412;2022-07-25T00:44:38;1.80;;;1.20;;
73428;SDS011;61643;49.564;17.412;2022-07-25T00:47:04;1.95;;;1.30;;
73428;SDS011;61643;49.564;17.412;2022-07-25T00:49:29;1.60;;;1.17;;
73428;SDS011;61643;49.564;17.412;2022-07-25T00:51:54;1.25;;;1.15;;
73428;SDS011;61643;49.564;17.412;2022-07-25T00:54:20;2.08;;;1.20;;
73428;SDS011;61643;49.564;17.412;2022-07-25T00:56:46;3.00;;;1.05;;
73428;SDS011;61643;49.564;17.412;2022-07-25T00:59:12;1.50;;;1.40;;
73428;SDS011;61643;49.564;17.412;2022-07-25T01:01:38;1.35;;;1.15;;
73428;SDS011;61643;49.564;17.412;2022-07-25T01:04:04;3.22;;;1.40;;
73428;SDS011;61643;49.564;17.412;2022-07-25T01:06:30;1.83;;;1.27;;
73428;SDS011;61643;49.564;17.412;2022-07-25T01:08:56;1.20;;;1.10;;
73428;SDS011;61643;49.564;17.412;2022-07-25T01:11:22;1.85;;;1.20;;
73428;SDS011;61643;49.564;17.412;2022-07-25T01:13:48;2.45;;;1.10;;
73428;SDS011;61643;49.564;17.412;2022-07-25T01:16:13;1.20;;;1.10;;
73428;SDS011;61643;49.564;17.412;2022-07-25T01:18:39;1.30;;;1.05;;
73428;SDS011;61643;49.564;17.412;2022-07-25T01:21:04;1.57;;;1.23;;
73428;SDS011;61643;49.564;17.412;2022-07-25T01:23:30;1.75;;;1.20;;
73428;SDS011;61643;49.564;17.412;2022-07-25T01:25:56;1.40;;;1.27;;
73428;SDS011;61643;49.564;17.412;2022-07-25T01:28:22;2.20;;;1.20;;
73428;SDS011;61643;49.564;17.412;2022-07-25T01:30:47;1.70;;;1.20;;
73428;SDS011;61643;49.564;17.412;2022-07-25T01:33:16;1.60;;;1.07;;
73428;SDS011;61643;49.564;17.412;2022-07-25T01:35:44;1.83;;;1.25;;
73428;SDS011;61643;49.564;17.412;2022-07-25T01:38:10;2.70;;;1.40;;
73428;SDS011;61643;49.564;17.412;2022-07-25T01:40:36;1.30;;;1.20;;
73428;SDS011;61643;49.564;17.412;2022-07-25T01:43:01;3.88;;;1.33;;
73428;SDS011;61643;49.564;17.412;2022-07-25T01:45:27;1.20;;;1.10;;
73428;SDS011;61643;49.564;17.412;2022-07-25T01:47:52;1.35;;;1.25;;
73428;SDS011;61643;49.564;17.412;2022-07-25T01:50:18;2.72;;;1.30;;
73428;SDS011;61643;49.564;17.412;2022-07-25T01:52:44;1.40;;;1.30;;
73428;SDS011;61643;49.564;17.412;2022-07-25T01:55:09;3.15;;;1.40;;
73428;SDS011;61643;49.564;17.412;2022-07-25T01:57:35;2.03;;;1.27;;
73428;SDS011;61643;49.564;17.412;2022-07-25T02:00:01;2.90;;;1.58;;
73428;SDS011;61643;49.564;17.412;2022-07-25T02:02:28;2.30;;;1.20;;
73428;SDS011;61643;49.564;17.412;2022-07-25T02:04:54;1.63;;;1.40;;
73428;SDS011;61643;49.564;17.412;2022-07-25T02:07:19;2.22;;;1.40;;
73428;SDS011;61643;49.564;17.412;2022-07-25T02:09:45;1.60;;;1.30;;
73428;SDS011;61643;49.564;17.412;2022-07-25T02:12:10;2.63;;;1.35;;
73428;SDS011;61643;49.564;17.412;2022-07-25T02:14:36;2.15;;;1.20;;
73428;SDS011;61643;49.564;17.412;2022-07-25T02:17:01;1.80;;;1.30;;
73428;SDS011;61643;49.564;17.412;2022-07-25T02:19:27;2.85;;;1.40;;
73428;SDS011;61643;49.564;17.412;2022-07-25T02:21:53;2.17;;;1.40;;
73428;SDS011;61643;49.564;17.412;2022-07-25T02:24:18;1.50;;;1.37;;
73428;SDS011;61643;49.564;17.412;2022-07-25T02:26:43;1.30;;;1.20;;
73428;SDS011;61643;49.564;17.412;2022-07-25T02:29:09;1.17;;;1.07;;
73428;SDS011;61643;49.564;17.412;2022-07-25T02:31:34;3.63;;;1.20;;
73428;SDS011;61643;49.564;17.412;2022-07-25T02:34:00;2.03;;;1.30;;
73428;SDS011;61643;49.564;17.412;2022-07-25T02:36:26;3.85;;;1.40;;
73428;SDS011;61643;49.564;17.412;2022-07-25T02:38:51;3.80;;;1.30;;
73428;SDS011;61643;49.564;17.412;2022-07-25T02:41:16;1.47;;;1.30;;
73428;SDS011;61643;49.564;17.412;2022-07-25T02:43:42;2.70;;;1.67;;
73428;SDS011;61643;49.564;17.412;2022-07-25T02:46:07;1.27;;;1.17;;
73428;SDS011;61643;49.564;17.412;2022-07-25T02:48:33;4.47;;;1.40;;
73428;SDS011;61643;49.564;17.412;2022-07-25T02:50:58;1.33;;;1.20;;
73428;SDS011;61643;49.564;17.412;2022-07-25T02:53:23;3.22;;;1.30;;
73428;SDS011;61643;49.564;17.412;2022-07-25T02:55:49;1.27;;;1.17;;
73428;SDS011;61643;49.564;17.412;2022-07-25T02:58:14;2.20;;;1.33;;
73428;SDS011;61643;49.564;17.412;2022-07-25T03:00:40;1.55;;;1.30;;
73428;SDS011;61643;49.564;17.412;2022-07-25T03:03:05;4.80;;;1.40;;
73428;SDS011;61643;49.564;17.412;2022-07-25T03:05:31;1.75;;;1.60;;
73428;SDS011;61643;49.564;17.412;2022-07-25T03:07:56;1.85;;;1.40;;
73428;SDS011;61643;49.564;17.412;2022-07-25T03:10:22;2.60;;;1.47;;
73428;SDS011;61643;49.564;17.412;2022-07-25T03:12:47;6.43;;;1.40;;
73428;SDS011;61643;49.564;17.412;2022-07-25T03:15:13;1.40;;;1.30;;
73428;SDS011;61643;49.564;17.412;2022-07-25T03:17:38;1.52;;;1.10;;
73428;SDS011;61643;49.564;17.412;2022-07-25T03:20:05;1.50;;;1.40;;
73428;SDS011;61643;49.564;17.412;2022-07-25T03:22:31;2.60;;;1.17;;
73428;SDS011;61643;49.564;17.412;2022-07-25T03:24:56;1.33;;;1.10;;
73428;SDS011;61643;49.564;17.412;2022-07-25T03:27:22;2.70;;;1.37;;
73428;SDS011;61643;49.564;17.412;2022-07-25T03:29:47;1.98;;;1.23;;
73428;SDS011;61643;49.564;17.412;2022-07-25T03:32:12;1.90;;;1.30;;
73428;SDS011;61643;49.564;17.412;2022-07-25T03:34:38;1.77;;;1.27;;
73428;SDS011;61643;49.564;17.412;2022-07-25T03:37:03;2.60;;;1.30;;
73428;SDS011;61643;49.564;17.412;2022-07-25T03:39:29;2.15;;;1.48;;
73428;SDS011;61643;49.564;17.412;2022-07-25T03:41:55;2.75;;;1.45;;
73428;SDS011;61643;49.564;17.412;2022-07-25T03:44:21;4.00;;;1.30;;
73428;SDS011;61643;49.564;17.412;2022-07-25T03:46:47;3.28;;;1.38;;
73428;SDS011;61643;49.564;17.412;2022-07-25T03:49:13;3.70;;;1.58;;
73428;SDS011;61643;49.564;17.412;2022-07-25T03:51:38;2.97;;;1.30;;
73428;SDS011;61643;49.564;17.412;2022-07-25T03:54:04;3.08;;;1.33;;
73428;SDS011;61643;49.564;17.412;2022-07-25T03:56:40;4.97;;;1.20;;
73428;SDS011;61643;49.564;17.412;2022-07-25T03:59:11;2.35;;;1.50;;
73428;SDS011;61643;49.564;17.412;2022-07-25T04:01:38;2.75;;;1.30;;
73428;SDS011;61643;49.564;17.412;2022-07-25T04:04:04;2.65;;;1.42;;
73428;SDS011;61643;49.564;17.412;2022-07-25T04:06:30;5.15;;;1.35;;
73428;SDS011;61643;49.564;17.412;2022-07-25T04:08:56;3.50;;;1.27;;
73428;SDS011;61643;49.564;17.412;2022-07-25T04:11:22;5.15;;;1.40;;
73428;SDS011;61643;49.564;17.412;2022-07-25T04:13:47;2.67;;;1.30;;
73428;SDS011;61643;49.564;17.412;2022-07-25T04:16:13;2.20;;;1.20;;
73428;SDS011;61643;49.564;17.412;2022-07-25T04:18:39;2.55;;;1.40;;
73428;SDS011;61643;49.564;17.412;2022-07-25T04:21:05;2.22;;;1.35;;
73428;SDS011;61643;49.564;17.412;2022-07-25T04:23:31;2.78;;;1.40;;
73428;SDS011;61643;49.564;17.412;2022-07-25T04:25:57;3.35;;;1.17;;
73428;SDS011;61643;49.564;17.412;2022-07-25T04:28:23;3.10;;;1.25;;
73428;SDS011;61643;49.564;17.412;2022-07-25T04:30:49;2.35;;;1.20;;
73428;SDS011;61643;49.564;17.412;2022-07-25T04:33:15;1.80;;;1.20;;
73428;SDS011;61643;49.564;17.412;2022-07-25T04:35:41;1.63;;;1.45;;
73428;SDS011;61643;49.564;17.412;2022-07-25T04:38:06;2.78;;;1.40;;
73428;SDS011;61643;49.564;17.412;2022-07-25T04:40:32;4.72;;;1.30;;
73428;SDS011;61643;49.564;17.412;2022-07-25T04:42:58;4.13;;;1.52;;
73428;SDS011;61643;49.564;17.412;2022-07-25T04:45:23;5.95;;;1.70;;
73428;SDS011;61643;49.564;17.412;2022-07-25T04:47:49;1.52;;;1.42;;
73428;SDS011;61643;49.564;17.412;2022-07-25T04:50:14;2.55;;;1.60;;
73428;SDS011;61643;49.564;17.412;2022-07-25T04:52:40;2.83;;;1.80;;
73428;SDS011;61643;49.564;17.412;2022-07-25T04:55:06;4.20;;;1.98;;
73428;SDS011;61643;49.564;17.412;2022-07-25T04:57:31;3.72;;;2.13;;
73428;SDS011;61643;49.564;17.412;2022-07-25T04:59:57;6.47;;;2.23;;
73428;SDS011;61643;49.564;17.412;2022-07-25T05:02:23;4.65;;;2.22;;
73428;SDS011;61643;49.564;17.412;2022-07-25T05:04:49;3.60;;;2.17;;
73428;SDS011;61643;49.564;17.412;2022-07-25T05:07:15;5.07;;;2.45;;
73428;SDS011;61643;49.564;17.412;2022-07-25T05:09:40;5.70;;;1.90;;
73428;SDS011;61643;49.564;17.412;2022-07-25T05:12:06;4.65;;;2.05;;
73428;SDS011;61643;49.564;17.412;2022-07-25T05:14:31;7.18;;;2.00;;
73428;SDS011;61643;49.564;17.412;2022-07-25T05:16:57;7.27;;;1.90;;
73428;SDS011;61643;49.564;17.412;2022-07-25T05:19:22;5.77;;;1.60;;
73428;SDS011;61643;49.564;17.412;2022-07-25T05:21:48;4.03;;;1.33;;
73428;SDS011;61643;49.564;17.412;2022-07-25T05:24:13;2.13;;;1.47;;
73428;SDS011;61643;49.564;17.412;2022-07-25T05:26:38;3.63;;;1.70;;
73428;SDS011;61643;49.564;17.412;2022-07-25T05:29:04;1.80;;;1.30;;
73428;SDS011;61643;49.564;17.412;2022-07-25T05:31:29;1.37;;;1.10;;
73428;SDS011;61643;49.564;17.412;2022-07-25T05:33:54;1.73;;;1.30;;
73428;SDS011;61643;49.564;17.412;2022-07-25T05:36:20;2.20;;;1.27;;
73428;SDS011;61643;49.564;17.412;2022-07-25T05:38:45;3.50;;;1.60;;
73428;SDS011;61643;49.564;17.412;2022-07-25T05:41:10;3.10;;;1.40;;
73428;SDS011;61643;49.564;17.412;2022-07-25T05:43:36;3.23;;;1.40;;
73428;SDS011;61643;49.564;17.412;2022-07-25T05:46:04;2.57;;;1.30;;
73428;SDS011;61643;49.564;17.412;2022-07-25T05:48:30;1.92;;;1.33;;
73428;SDS011;61643;49.564;17.412;2022-07-25T05:50:56;3.85;;;1.40;;
73428;SDS011;61643;49.564;17.412;2022-07-25T05:53:23;2.17;;;1.42;;
73428;SDS011;61643;49.564;17.412;2022-07-25T05:55:49;4.68;;;1.50;;
73428;SDS011;61643;49.564;17.412;2022-07-25T05:58:14;3.60;;;1.40;;
73428;SDS011;61643;49.564;17.412;2022-07-25T06:00:39;1.97;;;1.20;;
73428;SDS011;61643;49.564;17.412;2022-07-25T06:03:05;3.60;;;1.13;;
73428;SDS011;61643;49.564;17.412;2022-07-25T06:05:30;2.63;;;1.30;;
73428;SDS011;61643;49.564;17.412;2022-07-25T06:07:56;3.22;;;1.17;;
73428;SDS011;61643;49.564;17.412;2022-07-25T06:10:21;2.13;;;1.30;;
73428;SDS011;61643;49.564;17.412;2022-07-25T06:12:47;3.97;;;1.50;;
73428;SDS011;61643;49.564;17.412;2022-07-25T06:15:12;2.33;;;1.30;;
73428;SDS011;61643;49.564;17.412;2022-07-25T06:17:37;2.73;;;1.40;;
73428;SDS011;61643;49.564;17.412;2022-07-25T06:20:03;1.58;;;1.20;;
73428;SDS011;61643;49.564;17.412;2022-07-25T06:22:29;2.47;;;1.40;;
73428;SDS011;61643;49.564;17.412;2022-07-25T06:24:55;2.55;;;1.55;;
73428;SDS011;61643;49.564;17.412;2022-07-25T06:27:20;2.60;;;1.30;;
73428;SDS011;61643;49.564;17.412;2022-07-25T06:29:46;3.95;;;1.40;;
73428;SDS011;61643;49.564;17.412;2022-07-25T06:32:11;2.42;;;1.10;;
73428;SDS011;61643;49.564;17.412;2022-07-25T06:34:37;1.97;;;1.00;;
73428;SDS011;61643;49.564;17.412;2022-07-25T06:37:02;3.47;;;1.27;;
73428;SDS011;61643;49.564;17.412;2022-07-25T06:39:28;2.60;;;1.20;;
73428;SDS011;61643;49.564;17.412;2022-07-25T06:41:54;1.97;;;1.40;;
73428;SDS011;61643;49.564;17.412;2022-07-25T06:44:19;2.28;;;1.40;;
73428;SDS011;61643;49.564;17.412;2022-07-25T06:46:45;3.53;;;1.33;;
73428;SDS011;61643;49.564;17.412;2022-07-25T06:49:10;6.73;;;1.57;;
73428;SDS011;61643;49.564;17.412;2022-07-25T06:51:36;2.35;;;1.17;;
73428;SDS011;61643;49.564;17.412;2022-07-25T06:54:01;2.00;;;1.50;;
73428;SDS011;61643;49.564;17.412;2022-07-25T06:56:26;2.38;;;1.27;;
73428;SDS011;61643;49.564;17.412;2022-07-25T06:58:55;4.03;;;1.52;;
73428;SDS011;61643;49.564;17.412;2022-07-25T07:01:21;2.60;;;1.25;;
73428;SDS011;61643;49.564;17.412;2022-07-25T07:03:47;1.95;;;1.25;;
73428;SDS011;61643;49.564;17.412;2022-07-25T07:06:12;2.13;;;1.50;;
73428;SDS011;61643;49.564;17.412;2022-07-25T07:08:38;2.30;;;1.52;;
73428;SDS011;61643;49.564;17.412;2022-07-25T07:11:03;2.43;;;1.37;;
73428;SDS011;61643;49.564;17.412;2022-07-25T07:13:29;3.72;;;1.52;;
73428;SDS011;61643;49.564;17.412;2022-07-25T07:15:55;1.83;;;1.30;;
73428;SDS011;61643;49.564;17.412;2022-07-25T07:18:20;1.42;;;1.10;;
73428;SDS011;61643;49.564;17.412;2022-07-25T07:20:46;2.17;;;1.20;;
73428;SDS011;61643;49.564;17.412;2022-07-25T07:23:12;1.20;;;1.10;;
73428;SDS011;61643;49.564;17.412;2022-07-25T07:25:37;1.38;;;1.25;;
73428;SDS011;61643;49.564;17.412;2022-07-25T07:28:03;1.33;;;1.17;;
73428;SDS011;61643;49.564;17.412;2022-07-25T07:30:29;2.20;;;1.30;;
73428;SDS011;61643;49.564;17.412;2022-07-25T07:32:54;2.47;;;1.23;;
73428;SDS011;61643;49.564;17.412;2022-07-25T07:35:21;1.87;;;1.00;;
73428;SDS011;61643;49.564;17.412;2022-07-25T07:37:47;2.05;;;1.20;;
73428;SDS011;61643;49.564;17.412;2022-07-25T07:40:14;2.75;;;1.25;;
73428;SDS011;61643;49.564;17.412;2022-07-25T07:42:41;1.95;;;1.30;;
73428;SDS011;61643;49.564;17.412;2022-07-25T07:47:41;2.55;;;1.10;;
73428;SDS011;61643;49.564;17.412;2022-07-25T07:50:07;1.63;;;0.90;;
73428;SDS011;61643;49.564;17.412;2022-07-25T07:52:33;1.27;;;1.00;;
73428;SDS011;61643;49.564;17.412;2022-07-25T07:54:59;1.15;;;0.93;;
73428;SDS011;61643;49.564;17.412;2022-07-25T07:57:43;1.63;;;1.00;;
73428;SDS011;61643;49.564;17.412;2022-07-25T08:00:08;1.53;;;1.13;;
73428;SDS011;61643;49.564;17.412;2022-07-25T08:02:44;1.90;;;1.17;;
73428;SDS011;61643;49.564;17.412;2022-07-25T08:05:11;2.45;;;1.13;;
73428;SDS011;61643;49.564;17.412;2022-07-25T08:07:37;3.88;;;1.20;;
73428;SDS011;61643;49.564;17.412;2022-07-25T08:10:03;2.63;;;1.08;;
73428;SDS011;61643;49.564;17.412;2022-07-25T08:12:29;3.13;;;0.93;;
73428;SDS011;61643;49.564;17.412;2022-07-25T08:14:54;5.70;;;1.30;;
73428;SDS011;61643;49.564;17.412;2022-07-25T08:17:20;3.30;;;1.30;;
73428;SDS011;61643;49.564;17.412;2022-07-25T08:19:45;3.90;;;1.30;;
73428;SDS011;61643;49.564;17.412;2022-07-25T08:22:10;1.73;;;1.20;;
73428;SDS011;61643;49.564;17.412;2022-07-25T08:24:36;1.30;;;1.20;;
73428;SDS011;61643;49.564;17.412;2022-07-25T08:27:01;1.70;;;1.10;;
73428;SDS011;61643;49.564;17.412;2022-07-25T08:29:27;2.17;;;1.10;;
73428;SDS011;61643;49.564;17.412;2022-07-25T08:31:53;3.00;;;1.20;;
73428;SDS011;61643;49.564;17.412;2022-07-25T08:34:18;2.42;;;1.02;;
73428;SDS011;61643;49.564;17.412;2022-07-25T08:36:46;3.25;;;1.17;;
73428;SDS011;61643;49.564;17.412;2022-07-25T08:39:12;1.17;;;1.08;;
73428;SDS011;61643;49.564;17.412;2022-07-25T08:41:54;1.35;;;1.00;;
73428;SDS011;61643;49.564;17.412;2022-07-25T08:47:08;0.90;;;0.90;;
73428;SDS011;61643;49.564;17.412;2022-07-25T08:49:34;3.75;;;1.08;;
73428;SDS011;61643;49.564;17.412;2022-07-25T08:52:00;2.45;;;1.08;;
73428;SDS011;61643;49.564;17.412;2022-07-25T08:54:27;1.30;;;1.00;;
73428;SDS011;61643;49.564;17.412;2022-07-25T08:56:53;2.85;;;1.20;;
73428;SDS011;61643;49.564;17.412;2022-07-25T08:59:18;3.37;;;1.20;;
73428;SDS011;61643;49.564;17.412;2022-07-25T09:01:43;1.98;;;0.98;;
73428;SDS011;61643;49.564;17.412;2022-07-25T09:04:09;2.00;;;1.05;;
73428;SDS011;61643;49.564;17.412;2022-07-25T09:06:34;2.25;;;1.13;;
73428;SDS011;61643;49.564;17.412;2022-07-25T09:09:01;2.25;;;1.08;;
73428;SDS011;61643;49.564;17.412;2022-07-25T09:11:32;1.58;;;1.10;;
73428;SDS011;61643;49.564;17.412;2022-07-25T09:14:00;4.05;;;1.40;;
73428;SDS011;61643;49.564;17.412;2022-07-25T09:16:28;2.28;;;1.38;;
73428;SDS011;61643;49.564;17.412;2022-07-25T09:19:04;1.30;;;1.20;;
73428;SDS011;61643;49.564;17.412;2022-07-25T09:21:40;1.45;;;1.30;;
73428;SDS011;61643;49.564;17.412;2022-07-25T09:24:08;1.70;;;1.20;;
73428;SDS011;61643;49.564;17.412;2022-07-25T09:26:58;1.92;;;1.35;;
73428;SDS011;61643;49.564;17.412;2022-07-25T09:29:28;1.67;;;1.40;;
73428;SDS011;61643;49.564;17.412;2022-07-25T09:31:56;1.75;;;1.42;;
73428;SDS011;61643;49.564;17.412;2022-07-25T09:36:55;3.35;;;1.60;;
73428;SDS011;61643;49.564;17.412;2022-07-25T09:39:31;3.03;;;1.33;;
73428;SDS011;61643;49.564;17.412;2022-07-25T09:41:57;2.85;;;1.40;;
73428;SDS011;61643;49.564;17.412;2022-07-25T09:44:23;3.50;;;1.10;;
73428;SDS011;61643;49.564;17.412;2022-07-25T09:46:54;5.03;;;1.48;;
73428;SDS011;61643;49.564;17.412;2022-07-25T09:49:20;2.38;;;1.30;;
73428;SDS011;61643;49.564;17.412;2022-07-25T09:51:46;1.42;;;1.33;;
73428;SDS011;61643;49.564;17.412;2022-07-25T09:54:12;3.45;;;1.13;;
73428;SDS011;61643;49.564;17.412;2022-07-25T09:56:37;1.38;;;1.27;;
73428;SDS011;61643;49.564;17.412;2022-07-25T09:59:03;1.60;;;1.40;;
73428;SDS011;61643;49.564;17.412;2022-07-25T10:01:33;3.03;;;1.30;;
73428;SDS011;61643;49.564;17.412;2022-07-25T10:04:18;3.45;;;1.50;;
73428;SDS011;61643;49.564;17.412;2022-07-25T10:06:59;1.65;;;1.30;;
73428;SDS011;61643;49.564;17.412;2022-07-25T10:09:29;2.97;;;1.45;;
73428;SDS011;61643;49.564;17.412;2022-07-25T10:12:02;2.53;;;1.20;;
73428;SDS011;61643;49.564;17.412;2022-07-25T10:14:28;5.65;;;1.60;;
73428;SDS011;61643;49.564;17.412;2022-07-25T10:16:56;2.30;;;1.43;;
73428;SDS011;61643;49.564;17.412;2022-07-25T10:22:20;2.53;;;1.45;;
73428;SDS011;61643;49.564;17.412;2022-07-25T10:24:45;1.48;;;1.35;;
73428;SDS011;61643;49.564;17.412;2022-07-25T10:27:12;2.05;;;1.38;;
73428;SDS011;61643;49.564;17.412;2022-07-25T10:29:47;4.00;;;1.75;;
73428;SDS011;61643;49.564;17.412;2022-07-25T10:32:15;4.18;;;1.60;;
73428;SDS011;61643;49.564;17.412;2022-07-25T10:34:40;4.95;;;2.20;;
73428;SDS011;61643;49.564;17.412;2022-07-25T10:37:16;3.50;;;1.52;;
73428;SDS011;61643;49.564;17.412;2022-07-25T10:39:45;7.35;;;1.90;;
73428;SDS011;61643;49.564;17.412;2022-07-25T10:42:16;2.22;;;1.63;;
73428;SDS011;61643;49.564;17.412;2022-07-25T10:44:48;4.68;;;1.48;;
73428;SDS011;61643;49.564;17.412;2022-07-25T10:47:21;2.00;;;1.38;;
73428;SDS011;61643;49.564;17.412;2022-07-25T10:49:47;1.35;;;1.20;;
73428;SDS011;61643;49.564;17.412;2022-07-25T10:52:21;3.08;;;1.48;;
73428;SDS011;61643;49.564;17.412;2022-07-25T10:54:53;3.42;;;1.23;;
73428;SDS011;61643;49.564;17.412;2022-07-25T11:00:14;2.13;;;1.40;;
73428;SDS011;61643;49.564;17.412;2022-07-25T11:02:40;1.77;;;1.42;;
73428;SDS011;61643;49.564;17.412;2022-07-25T11:05:23;1.73;;;1.50;;
73428;SDS011;61643;49.564;17.412;2022-07-25T11:07:49;3.20;;;1.40;;
73428;SDS011;61643;49.564;17.412;2022-07-25T11:12:52;1.75;;;1.40;;
73428;SDS011;61643;49.564;17.412;2022-07-25T11:15:22;1.60;;;1.23;;
73428;SDS011;61643;49.564;17.412;2022-07-25T11:17:49;2.25;;;1.40;;
73428;SDS011;61643;49.564;17.412;2022-07-25T11:20:16;2.45;;;1.58;;
73428;SDS011;61643;49.564;17.412;2022-07-25T11:22:49;7.88;;;1.63;;
73428;SDS011;61643;49.564;17.412;2022-07-25T11:25:16;3.28;;;1.27;;
73428;SDS011;61643;49.564;17.412;2022-07-25T11:27:48;1.48;;;1.20;;
73428;SDS011;61643;49.564;17.412;2022-07-25T11:30:20;3.17;;;1.23;;
73428;SDS011;61643;49.564;17.412;2022-07-25T11:32:46;2.92;;;1.30;;
73428;SDS011;61643;49.564;17.412;2022-07-25T11:35:14;1.83;;;1.35;;
73428;SDS011;61643;49.564;17.412;2022-07-25T11:37:42;2.28;;;1.50;;
73428;SDS011;61643;49.564;17.412;2022-07-25T11:40:12;1.35;;;1.25;;
73428;SDS011;61643;49.564;17.412;2022-07-25T11:47:42;3.03;;;1.30;;
73428;SDS011;61643;49.564;17.412;2022-07-25T11:50:08;3.97;;;1.58;;
73428;SDS011;61643;49.564;17.412;2022-07-25T11:52:39;1.33;;;1.23;;
73428;SDS011;61643;49.564;17.412;2022-07-25T11:55:10;1.55;;;1.30;;
73428;SDS011;61643;49.564;17.412;2022-07-25T11:57:41;2.25;;;1.40;;
73428;SDS011;61643;49.564;17.412;2022-07-25T12:00:19;1.85;;;1.60;;
73428;SDS011;61643;49.564;17.412;2022-07-25T12:02:46;1.35;;;1.25;;
73428;SDS011;61643;49.564;17.412;2022-07-25T12:05:14;3.15;;;1.80;;
73428;SDS011;61643;49.564;17.412;2022-07-25T12:10:31;3.20;;;1.70;;
73428;SDS011;61643;49.564;17.412;2022-07-25T12:12:57;2.08;;;1.42;;
73428;SDS011;61643;49.564;17.412;2022-07-25T12:15:27;2.55;;;1.55;;
73428;SDS011;61643;49.564;17.412;2022-07-25T12:18:01;1.83;;;1.50;;
73428;SDS011;61643;49.564;17.412;2022-07-25T12:20:31;2.65;;;1.40;;
73428;SDS011;61643;49.564;17.412;2022-07-25T12:22:59;3.60;;;1.73;;
73428;SDS011;61643;49.564;17.412;2022-07-25T12:25:28;2.47;;;1.35;;
73428;SDS011;61643;49.564;17.412;2022-07-25T12:27:54;2.67;;;1.48;;
73428;SDS011;61643;49.564;17.412;2022-07-25T12:30:22;2.92;;;1.52;;
73428;SDS011;61643;49.564;17.412;2022-07-25T12:32:48;6.07;;;2.00;;
73428;SDS011;61643;49.564;17.412;2022-07-25T12:35:13;1.75;;;1.50;;
73428;SDS011;61643;49.564;17.412;2022-07-25T12:37:39;3.58;;;1.67;;
73428;SDS011;61643;49.564;17.412;2022-07-25T12:40:06;4.00;;;1.63;;
73428;SDS011;61643;49.564;17.412;2022-07-25T12:42:32;4.10;;;1.60;;
73428;SDS011;61643;49.564;17.412;2022-07-25T12:44:58;1.92;;;1.50;;
73428;SDS011;61643;49.564;17.412;2022-07-25T12:47:24;2.20;;;1.65;;
73428;SDS011;61643;49.564;17.412;2022-07-25T12:49:51;2.90;;;1.67;;
73428;SDS011;61643;49.564;17.412;2022-07-25T12:52:16;2.83;;;1.90;;
73428;SDS011;61643;49.564;17.412;2022-07-25T12:54:42;2.78;;;1.52;;
73428;SDS011;61643;49.564;17.412;2022-07-25T12:57:09;1.77;;;1.67;;
73428;SDS011;61643;49.564;17.412;2022-07-25T12:59:35;3.75;;;1.60;;
73428;SDS011;61643;49.564;17.412;2022-07-25T13:02:00;1.73;;;1.63;;
73428;SDS011;61643;49.564;17.412;2022-07-25T13:04:26;1.75;;;1.50;;
73428;SDS011;61643;49.564;17.412;2022-07-25T13:06:53;3.20;;;1.52;;
73428;SDS011;61643;49.564;17.412;2022-07-25T13:09:19;1.90;;;1.70;;
73428;SDS011;61643;49.564;17.412;2022-07-25T13:11:44;3.28;;;1.55;;
73428;SDS011;61643;49.564;17.412;2022-07-25T13:14:10;1.70;;;1.60;;
73428;SDS011;61643;49.564;17.412;2022-07-25T13:16:35;2.53;;;1.55;;
73428;SDS011;61643;49.564;17.412;2022-07-25T13:19:02;2.55;;;1.60;;
73428;SDS011;61643;49.564;17.412;2022-07-25T13:21:28;2.10;;;1.83;;
73428;SDS011;61643;49.564;17.412;2022-07-25T13:23:55;2.75;;;2.03;;
73428;SDS011;61643;49.564;17.412;2022-07-25T13:26:23;3.58;;;1.80;;
73428;SDS011;61643;49.564;17.412;2022-07-25T13:28:48;1.83;;;1.70;;
73428;SDS011;61643;49.564;17.412;2022-07-25T13:31:16;2.13;;;1.67;;
73428;SDS011;61643;49.564;17.412;2022-07-25T13:33:45;4.72;;;1.85;;
73428;SDS011;61643;49.564;17.412;2022-07-25T13:36:12;3.08;;;1.83;;
73428;SDS011;61643;49.564;17.412;2022-07-25T13:38:38;2.80;;;1.60;;
73428;SDS011;61643;49.564;17.412;2022-07-25T13:43:30;2.67;;;1.70;;
73428;SDS011;61643;49.564;17.412;2022-07-25T13:45:56;2.90;;;1.70;;
73428;SDS011;61643;49.564;17.412;2022-07-25T13:48:21;4.23;;;2.10;;
73428;SDS011;61643;49.564;17.412;2022-07-25T13:50:46;8.10;;;2.30;;
73428;SDS011;61643;49.564;17.412;2022-07-25T13:53:12;4.77;;;2.10;;
73428;SDS011;61643;49.564;17.412;2022-07-25T13:55:37;5.50;;;2.20;;
73428;SDS011;61643;49.564;17.412;2022-07-25T13:58:03;5.20;;;2.15;;
73428;SDS011;61643;49.564;17.412;2022-07-25T14:00:28;1.90;;;1.70;;
73428;SDS011;61643;49.564;17.412;2022-07-25T14:02:54;2.53;;;1.90;;
73428;SDS011;61643;49.564;17.412;2022-07-25T14:05:19;4.78;;;2.20;;
73428;SDS011;61643;49.564;17.412;2022-07-25T14:07:45;3.97;;;2.10;;
73428;SDS011;61643;49.564;17.412;2022-07-25T14:10:10;2.17;;;1.98;;
73428;SDS011;61643;49.564;17.412;2022-07-25T14:12:36;2.25;;;2.05;;
73428;SDS011;61643;49.564;17.412;2022-07-25T14:15:03;4.43;;;2.40;;
73428;SDS011;61643;49.564;17.412;2022-07-25T14:17:30;3.15;;;2.40;;
73428;SDS011;61643;49.564;17.412;2022-07-25T14:19:56;2.55;;;2.35;;
73428;SDS011;61643;49.564;17.412;2022-07-25T14:22:22;2.93;;;2.30;;
73428;SDS011;61643;49.564;17.412;2022-07-25T14:24:47;4.15;;;2.30;;
73428;SDS011;61643;49.564;17.412;2022-07-25T14:27:13;4.32;;;2.40;;
73428;SDS011;61643;49.564;17.412;2022-07-25T14:29:38;4.90;;;2.45;;
73428;SDS011;61643;49.564;17.412;2022-07-25T14:32:04;2.97;;;2.50;;
73428;SDS011;61643;49.564;17.412;2022-07-25T14:34:30;3.88;;;2.60;;
73428;SDS011;61643;49.564;17.412;2022-07-25T14:36:56;3.30;;;2.40;;
73428;SDS011;61643;49.564;17.412;2022-07-25T14:39:21;3.38;;;2.22;;
73428;SDS011;61643;49.564;17.412;2022-07-25T14:41:47;3.00;;;2.40;;
73428;SDS011;61643;49.564;17.412;2022-07-25T14:44:12;3.33;;;2.80;;
73428;SDS011;61643;49.564;17.412;2022-07-25T14:46:37;3.13;;;2.53;;
73428;SDS011;61643;49.564;17.412;2022-07-25T14:51:30;3.90;;;2.43;;
73428;SDS011;61643;49.564;17.412;2022-07-25T14:53:56;4.82;;;2.60;;
73428;SDS011;61643;49.564;17.412;2022-07-25T14:56:22;2.60;;;2.40;;
73428;SDS011;61643;49.564;17.412;2022-07-25T14:58:48;4.22;;;2.80;;